Washington, District of Columbia
Traffic Map
Current Weather Conditions
Washington, District of Columbia
Overcast
Overcast
75°
Feels Like: 75°
Wind Chill: 75° Ceiling: 1200
Heat Index: 75° Visibility: 10mi
Dew Point: 69° Wind: 0mph
Humidity: 82% Direction: ° ()
Pressure: 30.19in Gusts: 0mph
Raw Report DataKDCA 201352Z 00000KT 10SM BKN012 OVC045 24/21 A3019 RMK AO2 SLP222 T02390206
Traffic Incident Summary
Active as of:
Severity:
Category:
InformationThere was an issue retrieving the traffic information for this location. Please try a different location or try again shortly.
Advertisements